Time;durP1;ratioP1;P1;durP2;ratioP2;P2;SDS_P1;SDS_P2;PMS_P1;PMS_P2;Temp;Humidity;BMP_temperature;BMP_pressure;BME280_temperature;BME280_humidity;BME280_pressure;Samples;Min_cycle;Max_cycle;Signal;HPM_P1;HPM_P2
2021/05/28 00:00:13;;;;;;;6.12;4.95;;;;;;;16.01;100.00;98870.28;1736586;82;21624;-67
2021/05/28 00:02:43;;;;;;;6.50;5.28;;;;;;;15.96;100.00;98873.55;1736468;82;21871;-68
2021/05/28 00:05:15;;;;;;;9.73;5.50;;;;;;;15.92;100.00;98873.23;1736058;82;21808;-68
2021/05/28 00:07:44;;;;;;;5.53;5.03;;;;;;;15.86;100.00;98866.78;1736478;82;20984;-69
2021/05/28 00:10:18;;;;;;;7.45;5.08;;;;;;;15.79;100.00;98867.44;1736594;82;21632;-68
2021/05/28 00:12:48;;;;;;;11.03;4.80;;;;;;;15.74;100.00;98868.92;1736613;82;21048;-67
2021/05/28 00:15:20;;;;;;;5.00;4.55;;;;;;;15.70;100.00;98869.94;1731580;82;21633;-67
2021/05/28 00:17:51;;;;;;;4.92;4.53;;;;;;;15.68;100.00;98868.24;1732488;82;21027;-67
2021/05/28 00:20:25;;;;;;;5.10;4.53;;;;;;;15.65;100.00;98868.34;1729025;83;20996;-67
2021/05/28 00:23:03;;;;;;;4.90;4.50;;;;;;;15.60;100.00;98872.89;1715016;83;21591;-65
2021/05/28 00:25:31;;;;;;;5.08;4.67;;;;;;;15.55;100.00;98874.33;1708711;83;21491;-67
2021/05/28 00:28:01;;;;;;;5.00;4.50;;;;;;;15.51;100.00;98874.02;1729171;82;21110;-66
2021/05/28 00:30:40;;;;;;;6.25;5.25;;;;;;;15.50;100.00;98876.72;1729208;81;22007;-67
2021/05/28 00:33:13;;;;;;;7.75;5.17;;;;;;;15.45;100.00;98870.21;1728462;81;21554;-67
2021/05/28 00:35:48;;;;;;;5.42;4.92;;;;;;;15.41;100.00;98867.23;1715288;83;21692;-67
2021/05/28 00:38:24;;;;;;;5.22;4.83;;;;;;;15.37;100.00;98865.59;1715420;83;21024;-67
2021/05/28 00:40:54;;;;;;;6.83;6.10;;;;;;;15.33;100.00;98859.95;1715598;83;21642;-67
2021/05/28 00:43:27;;;;;;;6.20;5.62;;;;;;;15.30;100.00;98853.40;1729055;82;21610;-67
2021/05/28 00:45:59;;;;;;;8.88;6.28;;;;;;;15.24;100.00;98849.59;1729092;81;20948;-66
2021/05/28 00:48:29;;;;;;;5.83;5.33;;;;;;;15.18;100.00;98838.69;1715574;83;21085;-69
2021/05/28 00:51:05;;;;;;;5.40;4.90;;;;;;;15.15;100.00;98846.76;1731109;82;21562;-67
2021/05/28 00:53:35;;;;;;;5.60;5.03;;;;;;;15.12;100.00;98850.80;1728310;81;21184;-66
2021/05/28 00:56:08;;;;;;;5.40;5.00;;;;;;;15.09;100.00;98847.77;1729163;82;21634;-66
2021/05/28 00:58:40;;;;;;;6.10;5.50;;;;;;;15.07;100.00;98852.72;1729086;81;28568;-66
2021/05/28 01:01:11;;;;;;;5.55;5.05;;;;;;;15.04;100.00;98839.06;1715509;83;21527;-65
2021/05/28 01:03:42;;;;;;;7.42;5.75;;;;;;;15.03;100.00;98848.41;1731250;82;21540;-65
2021/05/28 01:06:18;;;;;;;6.67;5.93;;;;;;;15.03;100.00;98845.30;1729423;81;21666;-66
2021/05/28 01:08:46;;;;;;;9.18;7.90;;;;;;;15.03;100.00;98843.97;1715161;83;21554;-66
2021/05/28 01:11:24;;;;;;;17.27;9.68;;;;;;;15.02;100.00;98828.08;1718367;82;20988;-66
2021/05/28 01:13:55;;;;;;;12.53;9.50;;;;;;;15.03;100.00;98829.36;1729225;81;21031;-66
2021/05/28 01:16:37;;;;;;;30.62;9.18;;;;;;;15.03;100.00;98833.34;1715483;83;21519;-66
2021/05/28 01:19:15;;;;;;;32.98;8.88;;;;;;;15.03;100.00;98829.36;1715421;83;22071;-66
2021/05/28 01:21:48;;;;;;;9.08;6.45;;;;;;;15.02;100.00;98826.29;1715197;83;20993;-66
2021/05/28 01:24:20;;;;;;;10.75;6.12;;;;;;;15.01;100.00;98821.89;1729787;82;21568;-67
2021/05/28 01:27:01;;;;;;;6.62;6.03;;;;;;;15.00;100.00;98820.61;1729029;81;21588;-67
2021/05/28 01:29:27;;;;;;;6.67;6.10;;;;;;;14.98;100.00;98819.33;1713177;83;21629;-66
2021/05/28 01:32:04;;;;;;;15.48;6.42;;;;;;;15.01;100.00;98818.37;1731420;82;21496;-66
2021/05/28 01:34:41;;;;;;;20.00;6.95;;;;;;;15.01;100.00;98815.70;1728775;82;21964;-66
2021/05/28 01:37:12;;;;;;;13.35;7.33;;;;;;;15.00;100.00;98812.18;1731028;81;21558;-66
2021/05/28 01:39:58;;;;;;;15.25;7.17;;;;;;;15.01;100.00;98814.38;1731427;82;20937;-66
2021/05/28 01:42:30;;;;;;;16.07;6.33;;;;;;;14.99;100.00;98809.11;1731146;81;21676;-67
2021/05/28 01:45:03;;;;;;;8.55;6.25;;;;;;;15.00;100.00;98816.16;1726224;82;21032;-67
2021/05/28 01:47:38;;;;;;;20.25;5.80;;;;;;;15.00;100.00;98820.15;1730616;81;21619;-67
2021/05/28 01:50:09;;;;;;;53.33;6.55;;;;;;;15.03;100.00;98826.70;1731152;82;21148;-67
2021/05/28 01:52:41;;;;;;;33.80;5.47;;;;;;;15.04;100.00;98821.80;1717591;82;21076;-67
2021/05/28 01:55:18;;;;;;;10.85;4.62;;;;;;;15.04;100.00;98814.29;1729915;82;21530;-66
2021/05/28 01:57:51;;;;;;;7.40;3.72;;;;;;;15.03;100.00;98818.73;1729047;81;21099;-67
2021/05/28 02:00:27;;;;;;;12.80;3.77;;;;;;;15.03;100.00;98808.11;1693537;83;20973;-67
2021/05/28 02:03:03;;;;;;;11.63;4.45;;;;;;;15.03;100.00;98809.44;1715365;83;21586;-67
2021/05/28 02:05:36;;;;;;;40.65;5.95;;;;;;;15.05;100.00;98812.91;1730614;82;21583;-67
2021/05/28 02:08:17;;;;;;;13.95;5.03;;;;;;;15.05;100.00;98816.03;1727717;81;21470;-67
2021/05/28 02:10:50;;;;;;;8.98;4.85;;;;;;;15.04;100.00;98812.50;1715414;83;21585;-67
2021/05/28 02:13:22;;;;;;;7.17;4.97;;;;;;;15.06;100.00;98810.67;1730986;82;21652;-67
2021/05/28 02:15:53;;;;;;;8.48;5.10;;;;;;;15.07;100.00;98803.11;1729205;81;21589;-67
2021/05/28 02:18:29;;;;;;;18.85;5.90;;;;;;;15.09;100.00;98799.08;1714067;82;21619;-67
2021/05/28 02:21:03;;;;;;;8.15;5.30;;;;;;;15.10;100.00;98795.52;1727185;81;21529;-67
2021/05/28 02:23:34;;;;;;;7.45;5.75;;;;;;;15.11;100.00;98793.27;1727329;83;21087;-67
2021/05/28 02:26:05;;;;;;;11.90;5.30;;;;;;;15.14;100.00;98798.98;1727303;81;20975;-67
2021/05/28 02:28:34;;;;;;;17.20;5.12;;;;;;;15.14;100.00;98795.86;1724569;83;21491;-68
2021/05/28 02:31:04;;;;;;;30.08;4.40;;;;;;;15.15;100.00;98796.73;1750456;81;21523;-68
2021/05/28 02:33:36;;;;;;;13.50;4.50;;;;;;;15.13;100.00;98794.09;1752686;81;20913;-68
2021/05/28 02:36:08;;;;;;;6.80;4.45;;;;;;;15.09;100.00;98798.63;1752776;81;21446;-68
2021/05/28 02:38:36;;;;;;;4.03;3.35;;;;;;;15.09;100.00;98800.41;1752578;81;21467;-68
2021/05/28 02:41:06;;;;;;;4.87;3.52;;;;;;;15.09;100.00;98801.28;1752555;81;21509;-68
2021/05/28 02:43:36;;;;;;;4.20;3.75;;;;;;;15.10;100.00;98804.35;1752717;81;21443;-71
2021/05/28 02:46:06;;;;;;;5.62;3.98;;;;;;;15.10;100.00;98803.02;1752745;81;21499;-71
2021/05/28 02:48:36;;;;;;;4.33;3.55;;;;;;;15.11;100.00;98803.44;1752200;81;21141;-71
2021/05/28 02:51:05;;;;;;;4.62;3.70;;;;;;;15.12;100.00;98800.32;1752595;81;21595;-72
2021/05/28 02:53:34;;;;;;;3.92;3.52;;;;;;;15.13;100.00;98799.41;1752666;81;20992;-70
2021/05/28 02:56:03;;;;;;;4.72;3.58;;;;;;;15.14;100.00;98805.16;1752750;81;21663;-71
2021/05/28 02:58:32;;;;;;;4.53;4.12;;;;;;;15.14;100.00;98797.19;1752591;81;20981;-66
2021/05/28 03:01:01;;;;;;;4.15;3.85;;;;;;;15.17;100.00;98797.09;1752606;81;21110;-68
2021/05/28 03:03:29;;;;;;;4.25;3.90;;;;;;;15.18;100.00;98802.83;1752511;81;21527;-68
2021/05/28 03:06:00;;;;;;;6.08;4.85;;;;;;;15.23;100.00;98800.90;1752700;81;20913;-65
2021/05/28 03:08:30;;;;;;;6.72;5.62;;;;;;;15.30;100.00;98791.82;1752393;81;21471;-65
2021/05/28 03:11:01;;;;;;;7.12;6.15;;;;;;;15.38;100.00;98803.08;1752851;81;21467;-71
2021/05/28 03:13:30;;;;;;;7.45;6.00;;;;;;;15.44;100.00;98804.22;1753067;81;21054;-70
2021/05/28 03:16:00;;;;;;;5.62;5.12;;;;;;;15.52;100.00;98801.78;1753056;81;20893;-71
2021/05/28 03:18:44;;;;;;;4.90;4.50;;;;;;;15.61;100.00;98806.87;1754695;81;20992;-71
2021/05/28 03:21:20;;;;;;;7.35;5.60;;;;;;;15.69;100.00;98811.02;1753602;81;21000;-73
2021/05/28 03:23:53;;;;;;;5.62;5.12;;;;;;;15.77;100.00;98813.43;1767831;81;21032;-67
2021/05/28 03:26:23;;;;;;;7.05;6.03;;;;;;;15.82;100.00;98823.46;1768025;81;21085;-72
2021/05/28 03:28:52;;;;;;;9.25;6.28;;;;;;;15.88;100.00;98827.71;1760141;81;21447;-71
2021/05/28 03:31:26;;;;;;;7.62;6.40;;;;;;;15.93;100.00;98825.31;1768600;81;20961;-71
2021/05/28 03:33:56;;;;;;;6.78;5.97;;;;;;;15.98;100.00;98819.37;1768531;81;20984;-71
2021/05/28 03:36:26;;;;;;;8.63;6.28;;;;;;;16.03;100.00;98809.45;1762388;80;21084;-73
2021/05/28 03:38:57;;;;;;;7.03;6.20;;;;;;;16.08;100.00;98814.62;1756670;80;21103;-71
2021/05/28 03:41:26;;;;;;;7.45;6.75;;;;;;;16.13;100.00;98815.36;1738761;81;20979;-71
2021/05/28 03:43:55;;;;;;;7.08;5.95;;;;;;;16.17;100.00;98810.34;1759064;80;21040;-71
2021/05/28 03:46:24;;;;;;;6.33;5.72;;;;;;;16.20;100.00;98810.23;1766860;81;21546;-67
2021/05/28 03:48:52;;;;;;;6.72;6.15;;;;;;;16.23;100.00;98812.80;1767956;81;20936;-68
2021/05/28 03:51:21;;;;;;;6.83;6.22;;;;;;;16.25;100.00;98812.74;1768093;81;21101;-68
2021/05/28 03:53:50;;;;;;;7.28;5.75;;;;;;;16.27;100.00;98811.77;1767756;81;20873;-68
2021/05/28 03:56:19;;;;;;;7.12;5.53;;;;;;;16.30;100.00;98808.12;1767880;81;21387;-69
2021/05/28 03:58:47;;;;;;;5.97;5.47;;;;;;;16.32;100.00;98812.94;1767578;81;21513;-70
2021/05/28 04:01:16;;;;;;;5.90;5.40;;;;;;;16.35;100.00;98814.16;1767713;81;21011;-67
2021/05/28 04:03:44;;;;;;;7.05;4.95;;;;;;;16.36;100.00;98806.59;1766448;81;21643;-67
2021/05/28 04:06:12;;;;;;;6.35;4.83;;;;;;;16.42;100.00;98813.02;1742020;81;21032;-67
2021/05/28 04:08:40;;;;;;;5.72;5.22;;;;;;;16.47;100.00;98811.53;1767955;81;21609;-66
2021/05/28 04:11:09;;;;;;;4.85;4.45;;;;;;;16.53;100.00;98810.85;1767844;81;21550;-67
2021/05/28 04:13:38;;;;;;;5.37;4.80;;;;;;;16.56;100.00;98813.44;1767991;81;21008;-66
2021/05/28 04:16:08;;;;;;;6.12;5.45;;;;;;;16.61;100.00;98811.94;1767750;81;21553;-66
2021/05/28 04:18:37;;;;;;;4.90;4.33;;;;;;;16.63;100.00;98802.10;1767580;81;20972;-66
2021/05/28 04:21:06;;;;;;;6.17;4.72;;;;;;;16.70;100.00;98802.78;1767706;81;20988;-67
2021/05/28 04:23:34;;;;;;;5.62;4.83;;;;;;;16.72;100.00;98797.80;1767632;81;21435;-68
2021/05/28 04:26:04;;;;;;;4.50;4.10;;;;;;;16.76;100.00;98798.09;1767541;81;21430;-67
2021/05/28 04:28:35;;;;;;;4.80;4.22;;;;;;;16.79;100.00;98796.66;1767594;81;21827;-67
2021/05/28 04:31:04;;;;;;;5.87;5.28;;;;;;;16.84;100.00;98803.14;1767589;81;21417;-67
2021/05/28 04:33:32;;;;;;;5.30;4.80;;;;;;;16.89;100.00;98802.51;1767543;81;21568;-66
2021/05/28 04:36:00;;;;;;;7.15;5.30;;;;;;;16.93;100.00;98798.34;1767625;81;20996;-67
2021/05/28 04:38:29;;;;;;;6.62;4.65;;;;;;;17.01;100.00;98795.39;1737847;81;21000;-67
2021/05/28 04:40:57;;;;;;;6.15;4.80;;;;;;;17.08;100.00;98792.93;1767644;81;21078;-66
2021/05/28 04:43:26;;;;;;;6.30;4.78;;;;;;;17.19;100.00;98792.52;1767574;81;20980;-67
2021/05/28 04:45:55;;;;;;;6.85;5.17;;;;;;;17.27;100.00;98795.29;1767646;81;20984;-66
2021/05/28 04:48:24;;;;;;;5.47;4.90;;;;;;;17.42;100.00;98799.61;1767683;81;21470;-66
2021/05/28 04:50:53;;;;;;;5.45;4.95;;;;;;;17.52;100.00;98797.89;1767509;81;21556;-67
2021/05/28 04:53:23;;;;;;;5.92;5.30;;;;;;;17.62;100.00;98792.59;1767561;81;21478;-67
2021/05/28 04:55:52;;;;;;;5.72;5.12;;;;;;;17.90;100.00;98792.36;1767506;81;21410;-66
2021/05/28 04:58:20;;;;;;;5.87;4.90;;;;;;;17.90;100.00;98792.36;1767730;81;20997;-67
2021/05/28 05:00:50;;;;;;;6.97;4.70;;;;;;;18.06;100.00;98796.63;1767703;81;21523;-66
2021/05/28 05:03:18;;;;;;;6.72;5.05;;;;;;;18.21;100.00;98796.44;1767648;81;21479;-66
2021/05/28 05:05:47;;;;;;;7.37;5.17;;;;;;;18.32;100.00;98795.98;1767617;81;21114;-67
2021/05/28 05:08:15;;;;;;;6.78;5.83;;;;;;;18.40;100.00;98796.52;1767507;81;21007;-67
2021/05/28 05:10:45;;;;;;;6.87;4.78;;;;;;;18.47;100.00;98794.01;1767716;81;21162;-67
2021/05/28 05:13:14;;;;;;;20.23;5.62;;;;;;;18.53;100.00;98801.28;1767758;81;20944;-66
2021/05/28 05:15:44;;;;;;;7.67;5.30;;;;;;;18.65;100.00;98795.90;1767726;81;21438;-66
2021/05/28 05:18:12;;;;;;;6.67;5.67;;;;;;;18.72;100.00;98793.36;1766227;81;21522;-67
2021/05/28 05:20:42;;;;;;;9.08;5.72;;;;;;;18.81;100.00;98790.27;1753182;81;20873;-66
2021/05/28 05:23:12;;;;;;;5.97;5.33;;;;;;;18.85;100.00;98787.86;1727959;81;20890;-67
2021/05/28 05:25:41;;;;;;;6.20;5.60;;;;;;;18.90;100.00;98787.64;1753093;81;21503;-67
2021/05/28 05:28:08;;;;;;;9.45;5.70;;;;;;;18.93;100.00;98779.52;1753310;81;20988;-67
2021/05/28 05:30:36;;;;;;;7.53;5.85;;;;;;;18.97;100.00;98779.77;1753185;81;21489;-67
2021/05/28 05:33:05;;;;;;;7.65;6.00;;;;;;;19.00;100.00;98777.43;1753047;81;21878;-67
2021/05/28 05:35:33;;;;;;;6.08;5.10;;;;;;;19.03;100.00;98781.30;1753299;81;20928;-68
2021/05/28 05:38:01;;;;;;;16.42;5.50;;;;;;;19.05;100.00;98774.08;1753272;81;20901;-68
2021/05/28 05:40:29;;;;;;;6.67;5.40;;;;;;;19.10;100.00;98773.39;1753266;81;20881;-66
2021/05/28 05:42:58;;;;;;;7.90;5.80;;;;;;;19.14;100.00;98765.63;1753268;81;21105;-67
2021/05/28 05:45:26;;;;;;;10.43;7.17;;;;;;;19.21;100.00;98767.06;1753085;81;20916;-67
2021/05/28 05:47:54;;;;;;;9.80;5.85;;;;;;;19.25;100.00;98770.47;1753220;81;20917;-67
2021/05/28 05:50:22;;;;;;;7.90;5.40;;;;;;;19.29;100.00;98770.25;1753239;81;21052;-67
2021/05/28 05:52:53;;;;;;;6.62;5.35;;;;;;;19.36;100.00;98776.17;1753185;81;21471;-67
2021/05/28 05:55:22;;;;;;;6.67;5.85;;;;;;;19.39;100.00;98770.23;1753180;81;22206;-67
2021/05/28 05:57:51;;;;;;;6.47;5.62;;;;;;;19.42;100.00;98778.11;1753133;81;21024;-68
2021/05/28 06:00:21;;;;;;;5.90;5.40;;;;;;;19.46;100.00;98778.83;1753259;81;21052;-67
2021/05/28 06:02:49;;;;;;;5.33;4.83;;;;;;;19.50;100.00;98779.95;1753102;81;20984;-67
2021/05/28 06:05:18;;;;;;;7.83;5.25;;;;;;;19.54;100.00;98778.03;1753203;81;21045;-67
2021/05/28 06:07:46;;;;;;;6.40;5.67;;;;;;;19.58;100.00;98772.92;1753218;81;21149;-67
2021/05/28 06:10:14;;;;;;;6.72;5.47;;;;;;;19.61;100.00;98767.89;1753174;81;20870;-67
2021/05/28 06:12:44;;;;;;;11.20;5.97;;;;;;;19.63;100.00;98772.70;1727643;81;21548;-67
2021/05/28 06:15:14;;;;;;;7.22;6.50;;;;;;;19.66;100.00;98769.88;1753169;81;21447;-67
2021/05/28 06:17:41;;;;;;;10.38;7.33;;;;;;;19.69;100.00;98767.05;1753151;81;20906;-68
2021/05/28 06:20:12;;;;;;;6.75;5.83;;;;;;;19.72;100.00;98766.42;1714741;82;21042;-68
2021/05/28 06:22:40;;;;;;;8.80;6.47;;;;;;;19.77;100.00;98765.73;1740197;81;21638;-68
2021/05/28 06:25:10;;;;;;;8.33;6.53;;;;;;;19.80;100.00;98760.69;1740199;81;21048;-67
2021/05/28 06:27:38;;;;;;;8.30;5.28;;;;;;;19.85;100.00;98759.13;1740173;81;21032;-68
2021/05/28 06:30:08;;;;;;;7.08;5.55;;;;;;;19.87;100.00;98755.45;1740225;81;20957;-67
2021/05/28 06:32:36;;;;;;;8.85;6.08;;;;;;;19.93;100.00;98760.98;1740159;82;21128;-68
2021/05/28 06:35:05;;;;;;;7.35;6.42;;;;;;;19.96;100.00;98752.79;1740107;82;21456;-68
2021/05/28 06:37:34;;;;;;;13.45;6.55;;;;;;;20.00;100.00;98752.56;1740202;81;21486;-68
2021/05/28 06:40:03;;;;;;;8.30;4.75;;;;;;;20.04;100.00;98751.93;1740129;81;21522;-67
2021/05/28 06:42:31;;;;;;;5.53;4.85;;;;;;;20.07;100.00;98753.98;1740090;82;20932;-68
2021/05/28 06:44:58;;;;;;;5.00;4.60;;;;;;;20.11;100.00;98755.55;1740209;81;21113;-67
2021/05/28 06:47:27;;;;;;;7.25;5.28;;;;;;;20.15;100.00;98752.72;1740132;81;20996;-67
2021/05/28 06:49:55;;;;;;;5.55;5.00;;;;;;;20.17;100.00;98746.81;1740102;82;21056;-67
2021/05/28 06:52:23;;;;;;;8.45;5.03;;;;;;;20.20;100.00;98750.67;1740075;82;21025;-67
2021/05/28 06:54:51;;;;;;;4.33;3.92;;;;;;;20.22;100.00;98744.29;1740200;81;20901;-68
2021/05/28 06:57:20;;;;;;;4.83;4.30;;;;;;;20.27;100.00;98744.05;1740117;81;21493;-68
2021/05/28 06:59:48;;;;;;;4.92;4.33;;;;;;;20.32;100.00;98745.55;1740050;81;20972;-67
2021/05/28 07:02:16;;;;;;;4.80;4.30;;;;;;;20.35;100.00;98745.89;1740113;81;20953;-67
2021/05/28 07:04:44;;;;;;;4.97;4.15;;;;;;;20.39;100.00;98747.46;1740158;82;20913;-67
2021/05/28 07:07:13;;;;;;;4.90;4.08;;;;;;;20.40;100.00;98740.72;1740121;81;21447;-67
2021/05/28 07:09:41;;;;;;;9.40;4.60;;;;;;;20.44;100.00;98737.41;1740092;82;21848;-67
2021/05/28 07:12:09;;;;;;;6.33;4.15;;;;;;;20.49;100.00;98735.34;1740008;81;21410;-67
2021/05/28 07:14:38;;;;;;;4.97;3.95;;;;;;;20.54;100.00;98729.74;1740193;82;20901;-68
2021/05/28 07:17:06;;;;;;;5.80;3.83;;;;;;;20.60;100.00;98731.62;1740092;82;20913;-67
2021/05/28 07:19:34;;;;;;;4.72;3.98;;;;;;;20.64;100.00;98723.81;1748700;81;20905;-66
2021/05/28 07:22:01;;;;;;;4.87;3.83;;;;;;;20.67;100.00;98724.11;1753682;81;21133;-67
2021/05/28 07:24:29;;;;;;;4.75;4.25;;;;;;;20.71;100.00;98726.55;1753124;81;20961;-66
2021/05/28 07:26:58;;;;;;;5.28;3.87;;;;;;;20.81;100.00;98720.25;1752993;81;21124;-67
2021/05/28 07:29:26;;;;;;;5.35;3.70;;;;;;;20.91;100.00;98716.11;1753042;81;21593;-67
2021/05/28 07:31:54;;;;;;;5.78;4.25;;;;;;;21.03;100.00;98715.43;1753089;81;21689;-66
2021/05/28 07:34:23;;;;;;;6.12;4.25;;;;;;;21.16;100.00;98712.93;1753014;81;21117;-66
2021/05/28 07:36:50;;;;;;;5.83;3.75;;;;;;;21.29;100.00;98710.48;1753096;81;21499;-67
2021/05/28 07:39:19;;;;;;;7.25;4.03;;;;;;;21.40;100.00;98708.06;1753164;81;21032;-67
2021/05/28 07:41:49;;;;;;;4.55;4.00;;;;;;;21.48;100.00;98704.94;1753035;81;21542;-67
2021/05/28 07:44:18;;;;;;;4.17;3.58;;;;;;;21.57;100.00;98703.06;1753151;81;20933;-67
2021/05/28 07:46:47;;;;;;;5.65;3.25;;;;;;;21.64;100.00;98705.30;1753080;81;21114;-67
2021/05/28 07:49:16;;;;;;;5.03;3.40;;;;;;;21.67;100.00;98701.57;1753156;81;20956;-67
2021/05/28 07:51:45;;;;;;;6.17;3.52;;;;;;;21.74;100.00;98696.70;1752981;81;20969;-67
2021/05/28 07:54:14;;;;;;;4.00;3.58;;;;;;;21.84;100.00;98699.27;1753142;81;20926;-67
2021/05/28 07:56:43;;;;;;;6.85;3.80;;;;;;;21.93;100.00;98695.56;1753137;81;20909;-67
2021/05/28 07:59:12;;;;;;;4.10;3.42;;;;;;;22.00;100.00;98690.21;1753108;81;21690;-68
2021/05/28 08:01:41;;;;;;;3.80;3.40;;;;;;;22.09;100.00;98687.48;1753030;81;20969;-67
2021/05/28 08:04:10;;;;;;;4.05;3.65;;;;;;;22.18;100.00;98681.55;1753177;81;21403;-67
2021/05/28 08:06:39;;;;;;;4.17;3.72;;;;;;;22.25;100.00;98676.70;1727732;81;21534;-67
2021/05/28 08:09:07;;;;;;;6.45;4.00;;;;;;;22.31;100.00;98680.36;1753108;81;20969;-67
2021/05/28 08:11:35;;;;;;;8.13;5.60;;;;;;;22.40;100.00;98674.41;1727494;81;21074;-67
2021/05/28 08:14:06;;;;;;;7.50;5.62;;;;;;;22.52;100.00;98672.30;1752968;81;20953;-67
2021/05/28 08:16:35;;;;;;;8.30;5.62;;;;;;;22.58;100.00;98658.48;1753034;81;21545;-67
2021/05/28 08:19:04;;;;;;;8.38;5.70;;;;;;;22.69;100.00;98665.88;1753024;81;21646;-65
2021/05/28 08:21:32;;;;;;;11.28;5.87;;;;;;;22.79;100.00;98655.43;1761592;81;21083;-66
2021/05/28 08:24:01;;;;;;;6.03;4.55;;;;;;;22.90;100.00;98656.50;1767566;81;21510;-66
2021/05/28 08:26:28;;;;;;;6.42;4.42;;;;;;;23.06;100.00;98658.20;1767613;81;21515;-66
2021/05/28 08:28:56;;;;;;;5.22;3.98;;;;;;;23.21;100.00;98662.14;1767650;81;20948;-66
2021/05/28 08:31:23;;;;;;;10.20;4.62;;;;;;;23.36;100.00;98656.71;1767695;81;20921;-66
2021/05/28 08:33:51;;;;;;;5.90;3.98;;;;;;;23.46;100.00;98654.66;1767728;81;20897;-66
2021/05/28 08:36:22;;;;;;;7.10;4.85;;;;;;;23.56;100.00;98646.86;1767555;81;21474;-66
2021/05/28 08:38:50;;;;;;;5.92;3.85;;;;;;;23.67;100.00;98645.69;1767424;81;21459;-67
2021/05/28 08:41:18;;;;;;;8.98;3.95;;;;;;;23.81;100.00;98651.00;1767686;81;20984;-65
2021/05/28 08:43:47;;;;;;;6.25;3.67;;;;;;;23.94;100.00;98644.77;1738309;81;21007;-65
2021/05/28 08:46:16;;;;;;;6.53;3.65;;;;;;;24.04;100.00;98637.78;1767739;81;21529;-66
2021/05/28 08:48:45;;;;;;;6.40;3.83;;;;;;;24.18;100.00;98636.37;1767855;81;21176;-67
2021/05/28 08:51:13;;;;;;;3.98;3.40;;;;;;;24.29;100.00;98631.61;1767721;81;20913;-66
2021/05/28 08:53:41;;;;;;;5.58;3.60;;;;;;;24.43;100.00;98622.05;1738230;81;20910;-67
2021/05/28 08:56:10;;;;;;;7.97;3.00;;;;;;;24.58;100.00;98622.80;1767845;81;21063;-67
2021/05/28 08:58:38;;;;;;;3.25;2.65;;;;;;;24.71;100.00;98624.53;1767859;81;21490;-67
2021/05/28 09:01:08;;;;;;;5.90;3.12;;;;;;;24.84;100.00;98623.64;1767845;81;21079;-67
2021/05/28 09:03:38;;;;;;;5.22;3.12;;;;;;;24.94;100.00;98616.60;1767659;81;21071;-66
2021/05/28 09:06:18;;;;;;;11.70;3.27;;;;;;;25.06;100.00;98622.48;1767710;81;20961;-66
2021/05/28 09:08:47;;;;;;;6.45;2.95;;;;;;;25.13;100.00;98621.57;1767832;81;20936;-66
2021/05/28 09:11:18;;;;;;;5.03;3.00;;;;;;;25.20;100.00;98622.34;1767786;81;20957;-67
2021/05/28 09:13:52;;;;;;;7.30;3.00;;;;;;;25.24;100.00;98614.40;1767709;81;21042;-67
2021/05/28 09:16:24;;;;;;;11.00;2.83;;;;;;;25.27;100.00;98615.52;1767609;81;21398;-67
2021/05/28 09:18:56;;;;;;;8.50;3.37;;;;;;;25.27;100.00;98604.72;1767791;81;20896;-67
2021/05/28 09:21:35;;;;;;;8.90;3.30;;;;;;;25.24;100.00;98609.00;1767617;81;20928;-67
2021/05/28 09:24:06;;;;;;;16.30;3.67;;;;;;;25.26;100.00;98603.48;1764000;81;21509;-66
2021/05/28 09:26:36;;;;;;;11.65;3.90;;;;;;;25.30;100.00;98598.23;1738714;81;21049;-66
2021/05/28 09:29:07;;;;;;;10.20;3.42;;;;;;;25.40;100.00;98597.91;1747253;82;21618;-67
2021/05/28 09:31:35;;;;;;;12.15;3.47;;;;;;;25.53;100.00;98591.95;1747298;82;21022;-67
2021/05/28 09:34:04;;;;;;;13.20;3.40;;;;;;;25.64;100.00;98592.52;1747333;82;20949;-67
2021/05/28 09:36:38;;;;;;;11.50;3.75;;;;;;;25.68;100.00;98587.28;1747417;82;20897;-67
2021/05/28 09:39:16;;;;;;;4.30;3.30;;;;;;;25.67;100.00;98586.91;1747404;82;21085;-67
2021/05/28 09:41:53;;;;;;;9.00;2.92;;;;;;;25.65;100.00;98588.84;1747232;82;20997;-67
2021/05/28 09:44:24;;;;;;;5.45;2.35;;;;;;;25.53;100.00;98586.55;1747387;82;20914;-67
2021/05/28 09:47:20;;;;;;;4.70;1.98;;;;;;;25.44;100.00;98595.35;1733513;82;20889;-67
2021/05/28 09:49:51;;;;;;;2.42;2.22;;;;;;;25.39;100.00;98584.90;1763157;81;20932;-67
2021/05/28 09:52:24;;;;;;;3.52;2.30;;;;;;;25.40;100.00;98584.41;1761575;81;21689;-66
2021/05/28 09:55:08;;;;;;;5.10;2.27;;;;;;;25.42;100.00;98588.72;1761639;81;20892;-68
2021/05/28 09:57:49;;;;;;;5.72;2.72;;;;;;;25.41;100.00;98584.30;1747382;82;20965;-66
2021/05/28 10:00:33;;;;;;;4.60;2.42;;;;;;;25.41;100.00;98581.59;1747322;82;21036;-67
2021/05/28 10:03:26;;;;;;;5.42;2.60;;;;;;;25.46;100.00;98574.50;1746943;82;20921;-66
2021/05/28 10:05:57;;;;;;;3.05;2.40;;;;;;;25.54;100.00;98569.86;1747402;82;22270;-67
2021/05/28 10:08:28;;;;;;;3.50;2.15;;;;;;;25.64;100.00;98570.91;1747326;82;20989;-67
2021/05/28 10:10:57;;;;;;;3.90;2.33;;;;;;;25.75;100.00;98566.92;1747318;82;20929;-67
2021/05/28 10:13:29;;;;;;;5.90;1.92;;;;;;;25.77;100.00;98567.66;1747176;82;21067;-66
2021/05/28 10:15:58;;;;;;;21.50;2.80;;;;;;;25.73;100.00;98559.42;1747275;82;21025;-66
2021/05/28 10:18:27;;;;;;;3.12;2.02;;;;;;;25.73;100.00;98557.59;1747119;82;21534;-67
2021/05/28 10:20:55;;;;;;;8.23;3.20;;;;;;;25.68;100.00;98549.47;1700383;82;20977;-68
2021/05/28 10:23:23;;;;;;;9.15;2.87;;;;;;;25.69;100.00;98548.00;1747261;81;21500;-67
2021/05/28 10:25:56;;;;;;;4.50;2.10;;;;;;;25.75;100.00;98539.91;1747275;82;21547;-68
2021/05/28 10:28:36;;;;;;;14.40;2.77;;;;;;;25.80;100.00;98539.55;1752541;81;21470;-68
2021/05/28 10:31:04;;;;;;;4.67;1.92;;;;;;;25.83;100.00;98537.47;1752726;81;21100;-67
2021/05/28 10:33:33;;;;;;;22.85;2.67;;;;;;;25.82;100.00;98532.19;1752588;81;20925;-68
2021/05/28 10:36:05;;;;;;;9.38;2.20;;;;;;;25.83;100.00;98532.06;1752655;81;20909;-68
2021/05/28 10:38:51;;;;;;;3.42;1.80;;;;;;;25.87;100.00;98523.22;1752752;81;20942;-67
2021/05/28 10:41:27;;;;;;;4.15;1.90;;;;;;;25.90;100.00;98519.79;1752730;81;20997;-67
2021/05/28 10:44:02;;;;;;;5.28;1.60;;;;;;;26.00;100.00;98520.78;1752612;81;21092;-68
2021/05/28 10:46:30;;;;;;;2.50;2.02;;;;;;;26.12;100.00;98516.28;1752588;81;20913;-67
2021/05/28 10:49:10;;;;;;;2.20;1.90;;;;;;;26.21;100.00;98510.14;1752694;81;21001;-67
2021/05/28 10:51:44;;;;;;;3.35;1.90;;;;;;;26.29;100.00;98516.28;1752505;81;20937;-67
2021/05/28 10:54:21;;;;;;;4.83;1.92;;;;;;;26.33;100.00;98507.83;1752672;81;20874;-67
2021/05/28 10:56:49;;;;;;;2.77;1.80;;;;;;;26.40;100.00;98514.09;1747247;81;21052;-67
2021/05/28 10:59:22;;;;;;;2.98;2.02;;;;;;;26.48;100.00;98511.62;1752469;81;21549;-67
2021/05/28 11:01:52;;;;;;;6.08;1.67;;;;;;;26.45;100.00;98509.17;1752690;81;21000;-67
2021/05/28 11:04:31;;;;;;;2.95;1.60;;;;;;;26.28;100.00;98510.02;1752587;81;21622;-66
2021/05/28 11:07:05;;;;;;;6.40;1.87;;;;;;;26.13;100.00;98502.27;1747535;81;21494;-67
2021/05/28 11:09:52;;;;;;;2.85;1.80;;;;;;;26.00;98.19;98489.70;1752548;81;21090;-66
2021/05/28 11:12:37;;;;;;;6.37;1.60;;;;;;;25.93;97.62;98491.17;1752542;81;21008;-66
2021/05/28 11:15:27;;;;;;;3.33;1.40;;;;;;;25.86;100.00;98493.13;1752540;81;21531;-66
2021/05/28 11:18:02;;;;;;;1.87;1.67;;;;;;;25.83;100.00;98484.78;1752719;81;20921;-67
2021/05/28 11:20:38;;;;;;;2.10;1.90;;;;;;;25.86;100.00;98484.54;1752669;81;20944;-66
2021/05/28 11:23:15;;;;;;;3.42;1.50;;;;;;;25.96;100.00;98479.27;1759848;79;21145;-66
2021/05/28 11:25:49;;;;;;;2.37;1.87;;;;;;;26.00;100.00;98477.55;1789602;79;21506;-67
2021/05/28 11:28:17;;;;;;;3.42;1.87;;;;;;;26.02;97.64;98476.96;1789605;79;20944;-66
2021/05/28 11:30:54;;;;;;;11.45;2.00;;;;;;;26.09;99.61;98475.13;1789708;79;21645;-66
2021/05/28 11:33:37;;;;;;;3.45;1.87;;;;;;;26.11;98.39;98472.66;1789634;79;21549;-66
2021/05/28 11:36:19;;;;;;;5.05;1.92;;;;;;;26.08;100.00;98465.29;1789677;80;21142;-67
2021/05/28 11:38:56;;;;;;;1.67;1.50;;;;;;;26.05;100.00;98465.05;1789746;79;20961;-67
2021/05/28 11:41:45;;;;;;;9.63;1.80;;;;;;;26.07;100.00;98453.63;1789805;80;21023;-67